Terminal Aerodrome Forecast
Issued by NWS Sterling, VA

Current Version | Previous Version | Text Only | Print | Product List | Glossary Off
Versions: 1 2 3 4 5 6 7 8 9 10 11 12 13 14 15 16 17 18 19 20 21 22 23

000
FTUS41 KLWX 201700
TAFDCA
TAF
KDCA 201737Z 2018/2118 16007KT P6SM BKN050
     FM201900 16007KT P6SM VCTS BKN050CB
     FM210000 16006KT P6SM BKN050
     FM211100 00000KT P6SM FEW015 SCT050
     FM211500 32004KT P6SM BKN050=

USA.gov is the U.S. government's official web portal to all federal, state and local government web resources and services.